LKMT/OSR METAR and TAF weather

Enter ICAO airport designator
Station Type Date Time Source
LKMT METAR 2019/02/16 17:00 UTC NOAA

LKMT 161700Z 22009KT CAVOK 05/M03 Q1028 NOSIG


Station Type Date Time Source
LKMT Decoded METAR 2019/02/16 17:00 UTC NOAA

Ostrava / Mosnov, Czech Republic (LKMT) 49-41N 018-07E 256M
Feb 16, 2019 - 12:00 PM EST / 2019.02.16 1700 UTC
Wind: from the SW (220 degrees) at 10 MPH (9 KT):0
Visibility: greater than 7 mile(s):0
Temperature: 41 F (5 C)
Dew Point: 26 F (-3 C)
Relative Humidity: 56%
Pressure (altimeter): 30.36 in. Hg (1028 hPa)
ob: LKMT 161700Z 22009KT CAVOK 05/M03 Q1028 NOSIG
cycle: 17

Station Type Date Time Source
LKMT TAF 2019/02/16 18:05 UTC NOAA

TAF LKMT 161700Z 1618/1800 22010KT CAVOK
TEMPO 1710/1716 23014G26KT
BECMG 1718/1720 20005KT


Example: see airport list